»·PEaware :: N62DM KSNA-L71

N62DM :: KSNA-L71

FLIGHT INFORMATION

Flight Status: Arrived
Operator: Privately registered:
United States
More flights under this callsign
Pilot: Anonymous 16342 (16342)
Aircraft: Unknown
(DA62)
More flights by this aircraft type
Origin: KSNA John Wayne-Orange Co
United States
Destination: L71 California City Mun
United States
More flights between these airports :: More routes between these airports
Route: +
File this flight plan on PilotEdge
Remarks:
Altitude:
(Current/Filed)
6,500ft
Speed:
(Current/Filed)
0kts
Departed: 18-Mar-19 09:51 AM
Arrived: 18-Mar-19 10:25 AM
Distance/Time
Traveled:
66nm/0:34
Distance/Time
To Go:
Arrived

Flight Plot

Page will automatically refresh every two minutes.

Flight plan parsing failed; only flown route is shown


Map Options




Map Legend


Flown Route
Filed Route
Departure Airport
Arrival Airport
Navaid (VOR, NDB)
Fix

Horizontal Profiles

Position Reports

Time Latitude Longitude Heading Altitude Ground
Speed
18-Mar-19 09:44 33.673834 -117.872209 314 59ft 0kts
18-Mar-19 09:45 33.673834 -117.872209 314 59ft 0kts
18-Mar-19 09:46 33.674067 -117.871691 60 59ft 13kts
18-Mar-19 09:47 33.679249 -117.868185 20 59ft 22kts
18-Mar-19 09:48 33.681164 -117.866521 104 59ft 0kts
18-Mar-19 09:49 33.680291 -117.865805 201 59ft 26kts
18-Mar-19 09:50 33.664363 -117.886471 297 659ft 121kts
18-Mar-19 09:51 33.694080 -117.901157 343 2123ft 118kts
18-Mar-19 09:52 33.734536 -117.916375 342 2323ft 181kts
18-Mar-19 09:53 33.780354 -117.934387 343 2296ft 157kts
18-Mar-19 09:54 33.817369 -117.949416 343 2546ft 135kts
18-Mar-19 09:55 33.853619 -117.957634 8 3199ft 135kts
18-Mar-19 09:56 33.884870 -117.934631 43 4478ft 136kts
18-Mar-19 09:57 33.910258 -117.900122 73 5705ft 139kts
18-Mar-19 09:58 33.938149 -117.866697 26 6526ft 162kts
18-Mar-19 09:59 33.981620 -117.841239 26 6507ft 174kts
18-Mar-19 10:00 34.028455 -117.848240 351 6727ft 176kts
18-Mar-19 10:01 34.078681 -117.856215 353 7019ft 187kts
18-Mar-19 10:02 34.130435 -117.864149 353 7409ft 188kts
18-Mar-19 10:03 34.181817 -117.872010 353 8004ft 186kts
18-Mar-19 10:04 34.233545 -117.879888 354 8366ft 189kts
18-Mar-19 10:05 34.285588 -117.887758 353 8969ft 179kts
18-Mar-19 10:06 34.332242 -117.894886 353 10271ft 170kts
18-Mar-19 10:07 34.383597 -117.904070 339 10560ft 201kts
18-Mar-19 10:08 34.434386 -117.934647 316 10582ft 204kts
18-Mar-19 10:09 34.489038 -117.949426 356 10565ft 198kts
18-Mar-19 10:10 34.543369 -117.954972 355 10587ft 196kts
18-Mar-19 10:11 34.598358 -117.960442 355 10577ft 196kts
18-Mar-19 10:12 34.652440 -117.965880 355 10599ft 198kts
18-Mar-19 10:13 34.707984 -117.971524 355 10583ft 197kts
18-Mar-19 10:14 34.762478 -117.977024 355 10594ft 200kts
18-Mar-19 10:15 34.817449 -117.982671 355 10540ft 179kts
18-Mar-19 10:16 34.868992 -117.987863 355 9308ft 189kts
18-Mar-19 10:17 34.921234 -117.993201 355 8144ft 186kts
18-Mar-19 10:18 34.971876 -117.998359 355 7007ft 172kts
18-Mar-19 10:19 35.017633 -118.003045 355 5987ft 157kts
18-Mar-19 10:20 35.060359 -118.007400 355 5038ft 154kts
18-Mar-19 10:21 35.104073 -118.011876 356 4053ft 159kts
18-Mar-19 10:22 35.143006 -118.005716 64 3299ft 122kts
18-Mar-19 10:23 35.155788 -117.996395 252 2593ft 96kts
18-Mar-19 10:24 35.151534 -118.015186 254 2457ft 0kts
18-Mar-19 10:25 35.145591 -118.042494 255 2872ft 120kts
18-Mar-19 10:26 35.137168 -118.080946 255 4195ft 118kts
18-Mar-19 10:27 35.114456 -118.090125 153 5446ft 128kts
18-Mar-19 10:28 35.069656 -118.078308 171 5509ft 184kts
18-Mar-19 10:29 35.030474 -118.043752 144 5509ft 172kts
18-Mar-19 10:30 35.048199 -118.007925 3 5517ft 179kts
18-Mar-19 10:31 35.053275 -117.967013 165 5508ft 172kts
18-Mar-19 10:32 35.011105 -117.993043 207 5506ft 174kts
18-Mar-19 10:33 34.968507 -118.020376 206 5504ft 171kts
18-Mar-19 10:34 34.926014 -118.047378 206 5499ft 170kts
18-Mar-19 10:35 34.884020 -118.074066 206 5501ft 174kts
18-Mar-19 10:36 34.840670 -118.101501 206 5496ft 171kts
18-Mar-19 10:37 34.798787 -118.128021 205 5507ft 170kts
18-Mar-19 10:38 34.756603 -118.154681 206 5503ft 169kts

Navigation Log

Ident Type
Flight plan parsing failed, navigation log unavailable